KLKV Airport (Lake County) Information

FAA: LKV - ICAO: KLKV

KLKV Airport Location

State Oregon
County Lake
City Lakeview
KLKV Airport is 3 miles southwest of Lakeview, OR.
Latitude 42-09-40.0000N
Longitude 120-23-56.7000W
Elevation 4,734ft

KLKV Airport METARs

METAR KLKV 121353Z AUTO 34005KT 10SM FEW120 03/M02 A3019 RMK AO2 SLP200 T00331022
Altimeter 30.19"
Temperature 3.3°C (37.9°F)
Wind 340° at 5KT
Clouds few at 12,000ft
Visibility 10.0mi
Time observed: 2022-08-12T13:53:00Z

KLKV Airport Details

Status Operational
Activation December 1943
Ownership Public
Usage Public
Chart KLAMATH FALLS
ATC on-site No
Beacon schedule sunset-sunrise
Beacon color clear green

KLKV Airport Contacts

Owner LAKE COUNTY
Owner address LAKE COUNTY COURTHOUSE, 513 CENTER STREET, LAKEVIEW, OR 97630
Owner phone 541-947-6003
Manager JILL JOHNSON
Manager address 397 TALBOT RD. S.E., JEFFERSON, OR 97352
Manager phone 503-327-1169

KLKV Airport (Lake County) Radio Frequencies

KLKV (Airport) Radio Frequencies

UNICOM 122.8
Common traffic advisory frequency (CTAF) 122.8